sensor_id;sensor_type;location;lat;lon;timestamp;P1;P4;P2;P0;N10;N4;N25;N1;N05;TS
82002;SPS30;71522;50.870;3.524;2023-12-14T00:01:53;29.32;28.88;27.96;25.41;202.98;202.88;202.62;201.14;171.99;0.59
82002;SPS30;71522;50.870;3.524;2023-12-14T00:04:26;31.20;30.63;29.45;26.53;211.91;211.80;211.47;209.67;178.87;0.61
82002;SPS30;71522;50.870;3.524;2023-12-14T00:06:57;30.05;29.57;28.59;25.93;207.10;207.00;206.71;205.15;175.33;0.59
82002;SPS30;71522;50.870;3.524;2023-12-14T00:09:23;30.88;30.41;29.44;26.76;213.72;213.62;213.34;211.79;181.10;0.59
82002;SPS30;71522;50.870;3.524;2023-12-14T00:11:50;30.43;29.86;28.70;25.84;206.37;206.26;205.93;204.16;174.14;0.61
82002;SPS30;71522;50.870;3.524;2023-12-14T00:14:21;30.28;29.78;28.73;26.00;207.65;207.55;207.25;205.62;175.62;0.59
82002;SPS30;71522;50.870;3.524;2023-12-14T00:16:47;31.39;30.76;29.47;26.42;211.00;210.89;210.53;208.60;177.73;0.60
82002;SPS30;71522;50.870;3.524;2023-12-14T00:19:14;30.64;30.04;28.79;25.82;206.22;206.11;205.76;203.89;173.74;0.61
82002;SPS30;71522;50.870;3.524;2023-12-14T00:24:36;30.83;30.24;29.03;26.10;208.46;208.35;208.01;206.19;175.81;0.60
82002;SPS30;71522;50.870;3.524;2023-12-14T00:27:05;30.60;29.99;28.75;25.79;206.01;205.90;205.56;203.69;173.59;0.61
82002;SPS30;71522;50.870;3.524;2023-12-14T00:29:31;32.39;31.59;29.95;26.48;211.56;211.43;210.99;208.66;177.13;0.63
82002;SPS30;71522;50.870;3.524;2023-12-14T00:32:02;32.54;31.67;29.88;26.25;209.70;209.56;209.09;206.58;175.06;0.64
82002;SPS30;71522;50.870;3.524;2023-12-14T00:34:28;31.58;30.89;29.49;26.31;210.19;210.07;209.69;207.63;176.69;0.62
82002;SPS30;71522;50.870;3.524;2023-12-14T00:36:56;32.90;32.05;30.30;26.70;213.29;213.15;212.69;210.23;178.30;0.64
82002;SPS30;71522;50.870;3.524;2023-12-14T00:39:21;31.71;31.07;29.75;26.65;212.90;212.78;212.42;210.45;179.28;0.62
82002;SPS30;71522;50.870;3.524;2023-12-14T00:41:49;32.31;31.50;29.85;26.37;210.64;210.51;210.07;207.72;176.29;0.63
82002;SPS30;71522;50.870;3.524;2023-12-14T00:44:15;30.47;29.87;28.64;25.70;205.27;205.16;204.82;202.97;172.98;0.61
82002;SPS30;71522;50.870;3.524;2023-12-14T00:46:43;31.12;30.49;29.19;26.14;208.81;208.70;208.34;206.41;175.82;0.61
82002;SPS30;71522;50.870;3.524;2023-12-14T00:49:11;30.81;30.13;28.73;25.59;204.45;204.33;203.94;201.90;171.74;0.62
82002;SPS30;71522;50.870;3.524;2023-12-14T00:51:38;31.55;30.90;29.56;26.45;211.26;211.14;210.77;208.79;177.80;0.61
82002;SPS30;71522;50.870;3.524;2023-12-14T00:54:04;31.90;31.21;29.78;26.56;212.18;212.06;211.67;209.58;178.33;0.62
82002;SPS30;71522;50.870;3.524;2023-12-14T00:56:49;31.82;31.21;29.94;26.90;214.84;214.72;214.37;212.47;181.12;0.61
82002;SPS30;71522;50.870;3.524;2023-12-14T00:59:18;31.52;30.84;29.46;26.31;210.18;210.06;209.69;207.66;176.75;0.62
82002;SPS30;71522;50.870;3.524;2023-12-14T01:02:04;30.80;30.26;29.16;26.35;210.45;210.34;210.03;208.33;177.86;0.59
82002;SPS30;71522;50.870;3.524;2023-12-14T01:04:29;31.48;30.90;29.71;26.76;213.73;213.62;213.29;211.47;180.40;0.61
82002;SPS30;71522;50.870;3.524;2023-12-14T01:06:58;31.96;31.35;30.10;27.06;216.16;216.05;215.70;213.81;182.31;0.61
82002;SPS30;71522;50.870;3.524;2023-12-14T01:09:26;29.75;29.25;28.21;25.52;203.79;203.69;203.40;201.78;172.32;0.59
82002;SPS30;71522;50.870;3.524;2023-12-14T01:11:53;29.71;29.25;28.29;25.69;205.15;205.05;204.78;203.25;173.74;0.59
82002;SPS30;71522;50.870;3.524;2023-12-14T01:14:20;30.59;30.07;28.99;26.21;209.37;209.27;208.96;207.29;177.01;0.58
82002;SPS30;71522;50.870;3.524;2023-12-14T01:16:54;29.69;29.09;27.84;24.94;199.18;199.07;198.73;196.88;167.70;0.61
82002;SPS30;71522;50.870;3.524;2023-12-14T01:19:21;28.90;28.44;27.48;24.91;198.99;198.90;198.62;197.10;168.43;0.59
82002;SPS30;71522;50.870;3.524;2023-12-14T01:21:52;27.33;26.89;25.99;23.57;188.22;188.13;187.87;186.44;159.33;0.60
82002;SPS30;71522;50.870;3.524;2023-12-14T01:24:18;25.78;25.39;24.59;22.35;178.50;178.42;178.18;176.89;151.26;0.58
82002;SPS30;71522;50.870;3.524;2023-12-14T01:26:45;23.88;23.66;23.20;21.42;171.08;171.02;170.87;169.98;145.94;0.55
82002;SPS30;71522;50.870;3.524;2023-12-14T01:29:14;22.83;22.61;22.16;20.45;163.33;163.27;163.12;162.27;139.30;0.56
82002;SPS30;71522;50.870;3.524;2023-12-14T01:31:40;20.57;20.37;19.97;18.43;147.19;147.13;147.00;146.23;125.53;0.57
82002;SPS30;71522;50.870;3.524;2023-12-14T01:34:07;18.85;18.72;18.45;17.15;136.94;136.89;136.80;136.20;117.12;0.55
82002;SPS30;71522;50.870;3.524;2023-12-14T01:36:35;17.28;17.18;16.97;15.82;126.29;126.25;126.17;125.67;108.15;0.53
82002;SPS30;71522;50.870;3.524;2023-12-14T01:39:10;16.33;16.27;16.15;15.14;120.86;120.83;120.77;120.38;103.73;0.51
82002;SPS30;71522;50.870;3.524;2023-12-14T01:41:42;16.25;16.17;16.01;14.95;119.41;119.38;119.31;118.87;102.35;0.51
82002;SPS30;71522;50.870;3.524;2023-12-14T01:44:33;16.12;16.05;15.91;14.89;118.86;118.83;118.77;118.36;101.95;0.50
82002;SPS30;71522;50.870;3.524;2023-12-14T01:47:09;16.38;16.35;16.28;15.31;122.27;122.24;122.19;121.86;105.10;0.50
82002;SPS30;71522;50.870;3.524;2023-12-14T01:49:46;16.18;16.13;16.04;15.06;120.24;120.21;120.15;119.80;103.28;0.49
82002;SPS30;71522;50.870;3.524;2023-12-14T01:52:11;16.49;16.49;16.49;15.59;124.50;124.48;124.45;124.19;107.25;0.47
82002;SPS30;71522;50.870;3.524;2023-12-14T01:54:37;15.96;15.96;15.96;15.09;120.51;120.49;120.46;120.21;103.81;0.47
82002;SPS30;71522;50.870;3.524;2023-12-14T01:57:07;16.07;16.06;16.05;15.16;121.07;121.04;121.01;120.74;104.25;0.48
82002;SPS30;71522;50.870;3.524;2023-12-14T02:00:05;15.94;15.94;15.94;15.07;120.33;120.31;120.27;120.03;103.65;0.47
82002;SPS30;71522;50.870;3.524;2023-12-14T02:02:32;15.92;15.92;15.92;15.06;120.22;120.19;120.16;119.91;103.56;0.46
82002;SPS30;71522;50.870;3.524;2023-12-14T02:05:00;15.13;15.13;15.13;14.31;114.25;114.23;114.20;113.97;98.42;0.45
82002;SPS30;71522;50.870;3.524;2023-12-14T02:07:51;14.67;14.67;14.67;13.87;110.74;110.71;110.68;110.46;95.39;0.45
82002;SPS30;71522;50.870;3.524;2023-12-14T02:10:20;14.51;14.51;14.51;13.72;109.58;109.56;109.53;109.30;94.40;0.44
82002;SPS30;71522;50.870;3.524;2023-12-14T02:12:51;14.51;14.51;14.51;13.73;109.59;109.57;109.54;109.32;94.41;0.44
82002;SPS30;71522;50.870;3.524;2023-12-14T02:15:27;13.49;13.49;13.49;12.75;101.83;101.81;101.78;101.57;87.72;0.43
82002;SPS30;71522;50.870;3.524;2023-12-14T02:18:31;13.12;13.12;13.12;12.40;99.04;99.02;99.00;98.79;85.32;0.43
82002;SPS30;71522;50.870;3.524;2023-12-14T02:20:57;12.60;12.60;12.60;11.92;95.16;95.14;95.11;94.92;81.97;0.40
82002;SPS30;71522;50.870;3.524;2023-12-14T02:23:23;12.10;12.10;12.10;11.44;91.36;91.34;91.31;91.13;78.70;0.43
82002;SPS30;71522;50.870;3.524;2023-12-14T02:25:52;12.08;12.08;12.08;11.42;91.21;91.19;91.16;90.98;78.57;0.42
82002;SPS30;71522;50.870;3.524;2023-12-14T02:28:42;11.92;11.92;11.92;11.27;89.99;89.97;89.95;89.77;77.52;0.41
82002;SPS30;71522;50.870;3.524;2023-12-14T02:31:19;11.82;11.82;11.82;11.17;89.23;89.21;89.18;89.00;76.86;0.42
82002;SPS30;71522;50.870;3.524;2023-12-14T02:33:44;10.98;10.98;10.98;10.38;82.91;82.90;82.87;82.70;71.42;0.41
82002;SPS30;71522;50.870;3.524;2023-12-14T02:36:11;10.43;10.43;10.43;9.86;78.73;78.71;78.69;78.53;67.82;0.41
82002;SPS30;71522;50.870;3.524;2023-12-14T02:38:41;10.39;10.39;10.39;9.82;78.41;78.40;78.38;78.22;67.55;0.41
82002;SPS30;71522;50.870;3.524;2023-12-14T02:41:06;9.72;9.72;9.72;9.19;73.38;73.37;73.35;73.20;63.21;0.42
82002;SPS30;71522;50.870;3.524;2023-12-14T02:43:35;9.69;9.69;9.69;9.16;73.15;73.14;73.12;72.97;63.02;0.42
82002;SPS30;71522;50.870;3.524;2023-12-14T02:46:00;9.96;9.96;9.96;9.42;75.24;75.22;75.21;75.05;64.81;0.42
82002;SPS30;71522;50.870;3.524;2023-12-14T02:48:30;10.13;10.13;10.13;9.58;76.50;76.49;76.47;76.31;65.90;0.41
82002;SPS30;71522;50.870;3.524;2023-12-14T02:50:56;10.72;10.72;10.72;10.14;80.94;80.92;80.90;80.74;69.72;0.40
82002;SPS30;71522;50.870;3.524;2023-12-14T02:53:22;10.14;10.14;10.14;9.59;76.58;76.56;76.55;76.39;65.97;0.41
82002;SPS30;71522;50.870;3.524;2023-12-14T02:55:52;9.00;9.00;9.00;8.51;67.97;67.95;67.94;67.80;58.55;0.40
82002;SPS30;71522;50.870;3.524;2023-12-14T02:58:21;9.30;9.30;9.30;8.80;70.24;70.23;70.21;70.06;60.51;0.39
82002;SPS30;71522;50.870;3.524;2023-12-14T03:00:50;8.84;8.84;8.84;8.36;66.78;66.76;66.75;66.61;57.52;0.39
82002;SPS30;71522;50.870;3.524;2023-12-14T03:03:16;5.51;5.51;5.51;5.21;41.57;41.56;41.55;41.46;35.81;0.40
82002;SPS30;71522;50.870;3.524;2023-12-14T03:05:48;5.41;5.41;5.41;5.12;40.88;40.87;40.86;40.77;35.21;0.40
82002;SPS30;71522;50.870;3.524;2023-12-14T03:08:14;6.03;6.03;6.03;5.70;45.55;45.54;45.53;45.43;39.24;0.40
82002;SPS30;71522;50.870;3.524;2023-12-14T03:10:41;6.18;6.18;6.18;5.85;46.68;46.67;46.65;46.56;40.21;0.40
82002;SPS30;71522;50.870;3.524;2023-12-14T03:13:08;6.82;6.82;6.82;6.45;51.46;51.45;51.44;51.33;44.33;0.40
82002;SPS30;71522;50.870;3.524;2023-12-14T03:15:38;6.89;6.89;6.89;6.52;52.03;52.02;52.01;51.90;44.82;0.41
82002;SPS30;71522;50.870;3.524;2023-12-14T03:18:07;7.00;7.00;7.00;6.62;52.86;52.85;52.84;52.73;45.54;0.41
82002;SPS30;71522;50.870;3.524;2023-12-14T03:20:33;6.74;6.74;6.74;6.37;50.88;50.87;50.86;50.75;43.83;0.42
82002;SPS30;71522;50.870;3.524;2023-12-14T03:22:58;6.53;6.53;6.53;6.17;49.27;49.26;49.25;49.15;42.45;0.41
82002;SPS30;71522;50.870;3.524;2023-12-14T03:25:28;6.72;6.72;6.72;6.36;50.78;50.77;50.75;50.65;43.74;0.41
82002;SPS30;71522;50.870;3.524;2023-12-14T03:27:56;6.89;6.89;6.89;6.51;52.00;51.99;51.98;51.87;44.79;0.41
82002;SPS30;71522;50.870;3.524;2023-12-14T03:30:24;6.52;6.52;6.52;6.17;49.24;49.23;49.22;49.12;42.42;0.41
82002;SPS30;71522;50.870;3.524;2023-12-14T03:32:55;6.96;6.96;6.96;6.59;52.59;52.58;52.56;52.45;45.30;0.40
82002;SPS30;71522;50.870;3.524;2023-12-14T03:35:33;6.40;6.40;6.40;6.05;48.29;48.28;48.27;48.17;41.60;0.41
82002;SPS30;71522;50.870;3.524;2023-12-14T03:38:07;6.47;6.47;6.47;6.12;48.83;48.82;48.80;48.70;42.06;0.39
82002;SPS30;71522;50.870;3.524;2023-12-14T03:40:35;6.24;6.24;6.24;5.90;47.10;47.09;47.07;46.98;40.57;0.39
82002;SPS30;71522;50.870;3.524;2023-12-14T03:43:05;5.91;5.91;5.91;5.59;44.62;44.61;44.60;44.50;38.43;0.40
82002;SPS30;71522;50.870;3.524;2023-12-14T03:45:31;5.67;5.67;5.67;5.36;42.78;42.77;42.76;42.68;36.85;0.40
82002;SPS30;71522;50.870;3.524;2023-12-14T03:47:57;6.02;6.02;6.02;5.70;45.49;45.48;45.47;45.37;39.18;0.41
82002;SPS30;71522;50.870;3.524;2023-12-14T03:50:23;6.03;6.03;6.03;5.70;45.52;45.51;45.50;45.41;39.21;0.42
82002;SPS30;71522;50.870;3.524;2023-12-14T03:52:56;6.15;6.15;6.15;5.82;46.47;46.46;46.45;46.35;40.03;0.40
82002;SPS30;71522;50.870;3.524;2023-12-14T03:55:30;5.46;5.46;5.46;5.16;41.22;41.21;41.20;41.11;35.51;0.40
82002;SPS30;71522;50.870;3.524;2023-12-14T03:58:08;5.73;5.73;5.73;5.42;43.29;43.28;43.27;43.18;37.29;0.41
82002;SPS30;71522;50.870;3.524;2023-12-14T04:00:40;6.05;6.05;6.05;5.72;45.65;45.64;45.63;45.54;39.33;0.41
82002;SPS30;71522;50.870;3.524;2023-12-14T04:03:18;5.87;5.87;5.87;5.55;44.32;44.31;44.30;44.21;38.18;0.41
82002;SPS30;71522;50.870;3.524;2023-12-14T04:05:54;5.54;5.54;5.54;5.24;41.84;41.83;41.82;41.73;36.04;0.40
82002;SPS30;71522;50.870;3.524;2023-12-14T04:08:36;5.56;5.56;5.56;5.26;41.99;41.98;41.97;41.88;36.17;0.41
82002;SPS30;71522;50.870;3.524;2023-12-14T04:11:07;5.24;5.24;5.24;4.96;39.57;39.56;39.55;39.47;34.09;0.41
82002;SPS30;71522;50.870;3.524;2023-12-14T04:13:37;5.33;5.33;5.33;5.04;40.27;40.27;40.25;40.17;34.69;0.40
82002;SPS30;71522;50.870;3.524;2023-12-14T04:16:13;5.39;5.39;5.39;5.10;40.73;40.72;40.71;40.63;35.09;0.41
82002;SPS30;71522;50.870;3.524;2023-12-14T04:18:39;5.65;5.65;5.65;5.34;42.64;42.63;42.62;42.53;36.73;0.39
82002;SPS30;71522;50.870;3.524;2023-12-14T04:21:11;5.32;5.32;5.32;5.03;40.15;40.14;40.13;40.05;34.58;0.39
82002;SPS30;71522;50.870;3.524;2023-12-14T04:24:05;5.20;5.20;5.20;4.92;39.28;39.27;39.26;39.18;33.84;0.38
82002;SPS30;71522;50.870;3.524;2023-12-14T04:26:36;5.38;5.38;5.38;5.09;40.65;40.64;40.63;40.54;35.01;0.40
82002;SPS30;71522;50.870;3.524;2023-12-14T04:29:10;5.43;5.43;5.43;5.14;41.02;41.01;41.00;40.91;35.33;0.39
82002;SPS30;71522;50.870;3.524;2023-12-14T04:31:36;5.63;5.63;5.63;5.33;42.54;42.53;42.52;42.43;36.64;0.39
82002;SPS30;71522;50.870;3.524;2023-12-14T04:34:02;5.37;5.37;5.37;5.08;40.52;40.52;40.51;40.42;34.91;0.39
82002;SPS30;71522;50.870;3.524;2023-12-14T04:36:29;5.21;5.21;5.21;4.93;39.35;39.35;39.34;39.25;33.90;0.40
82002;SPS30;71522;50.870;3.524;2023-12-14T04:38:57;5.08;5.08;5.08;4.81;38.38;38.37;38.36;38.28;33.06;0.41
82002;SPS30;71522;50.870;3.524;2023-12-14T04:41:25;5.27;5.27;5.27;4.99;39.81;39.80;39.79;39.71;34.29;0.41
82002;SPS30;71522;50.870;3.524;2023-12-14T04:43:53;5.36;5.36;5.36;5.07;40.47;40.46;40.45;40.37;34.86;0.40
82002;SPS30;71522;50.870;3.524;2023-12-14T04:46:22;5.17;5.17;5.17;4.88;39.00;38.99;38.98;38.90;33.60;0.40
82002;SPS30;71522;50.870;3.524;2023-12-14T04:48:47;5.23;5.23;5.23;4.94;39.47;39.46;39.45;39.37;34.00;0.41
82002;SPS30;71522;50.870;3.524;2023-12-14T04:51:16;4.93;4.93;4.93;4.66;37.22;37.21;37.20;37.12;32.06;0.40
82002;SPS30;71522;50.870;3.524;2023-12-14T04:53:45;4.54;4.54;4.54;4.29;34.27;34.26;34.25;34.18;29.52;0.40
82002;SPS30;71522;50.870;3.524;2023-12-14T04:56:11;0.04;0.04;0.04;0.04;0.29;0.29;0.29;0.29;0.25;0.40
82002;SPS30;71522;50.870;3.524;2023-12-14T04:58:44;0.00;0.00;0.00;0.00;0.00;0.00;0.00;0.00;0.00;0.40
82002;SPS30;71522;50.870;3.524;2023-12-14T05:01:16;0.00;0.00;0.00;0.00;0.00;0.00;0.00;0.00;0.00;0.40
82002;SPS30;71522;50.870;3.524;2023-12-14T05:03:45;0.00;0.00;0.00;0.00;0.00;0.00;0.00;0.00;0.00;0.40
82002;SPS30;71522;50.870;3.524;2023-12-14T05:06:13;0.00;0.00;0.00;0.00;0.00;0.00;0.00;0.00;0.00;0.40
82002;SPS30;71522;50.870;3.524;2023-12-14T05:08:40;0.00;0.00;0.00;0.00;0.00;0.00;0.00;0.00;0.00;0.40
82002;SPS30;71522;50.870;3.524;2023-12-14T05:11:32;0.00;0.00;0.00;0.00;0.00;0.00;0.00;0.00;0.00;0.40
82002;SPS30;71522;50.870;3.524;2023-12-14T05:14:04;0.00;0.00;0.00;0.00;0.00;0.00;0.00;0.00;0.00;0.40
82002;SPS30;71522;50.870;3.524;2023-12-14T05:16:33;0.00;0.00;0.00;0.00;0.00;0.00;0.00;0.00;0.00;0.40
82002;SPS30;71522;50.870;3.524;2023-12-14T05:19:04;0.00;0.00;0.00;0.00;0.00;0.00;0.00;0.00;0.00;0.40
82002;SPS30;71522;50.870;3.524;2023-12-14T05:21:29;0.00;0.00;0.00;0.00;0.00;0.00;0.00;0.00;0.00;0.40
82002;SPS30;71522;50.870;3.524;2023-12-14T05:23:55;0.00;0.00;0.00;0.00;0.00;0.00;0.00;0.00;0.00;0.40
82002;SPS30;71522;50.870;3.524;2023-12-14T05:26:24;0.00;0.00;0.00;0.00;0.00;0.00;0.00;0.00;0.00;0.40
82002;SPS30;71522;50.870;3.524;2023-12-14T05:28:50;0.00;0.00;0.00;0.00;0.00;0.00;0.00;0.00;0.00;0.40
82002;SPS30;71522;50.870;3.524;2023-12-14T05:31:20;0.00;0.00;0.00;0.00;0.00;0.00;0.00;0.00;0.00;0.40
82002;SPS30;71522;50.870;3.524;2023-12-14T05:33:49;0.00;0.00;0.00;0.00;0.00;0.00;0.00;0.00;0.00;0.40
82002;SPS30;71522;50.870;3.524;2023-12-14T05:36:15;0.00;0.00;0.00;0.00;0.00;0.00;0.00;0.00;0.00;0.40
82002;SPS30;71522;50.870;3.524;2023-12-14T05:38:49;0.00;0.00;0.00;0.00;0.00;0.00;0.00;0.00;0.00;0.40
82002;SPS30;71522;50.870;3.524;2023-12-14T05:41:23;0.00;0.00;0.00;0.00;0.00;0.00;0.00;0.00;0.00;0.40
82002;SPS30;71522;50.870;3.524;2023-12-14T05:43:49;0.00;0.00;0.00;0.00;0.00;0.00;0.00;0.00;0.00;0.40
82002;SPS30;71522;50.870;3.524;2023-12-14T05:46:21;0.00;0.00;0.00;0.00;0.00;0.00;0.00;0.00;0.00;0.40
82002;SPS30;71522;50.870;3.524;2023-12-14T05:48:52;0.00;0.00;0.00;0.00;0.00;0.00;0.00;0.00;0.00;0.40
82002;SPS30;71522;50.870;3.524;2023-12-14T05:51:31;0.00;0.00;0.00;0.00;0.00;0.00;0.00;0.00;0.00;0.40
82002;SPS30;71522;50.870;3.524;2023-12-14T05:54:02;0.00;0.00;0.00;0.00;0.00;0.00;0.00;0.00;0.00;0.40
82002;SPS30;71522;50.870;3.524;2023-12-14T05:56:28;0.00;0.00;0.00;0.00;0.00;0.00;0.00;0.00;0.00;0.40
82002;SPS30;71522;50.870;3.524;2023-12-14T05:58:54;0.00;0.00;0.00;0.00;0.00;0.00;0.00;0.00;0.00;0.40
82002;SPS30;71522;50.870;3.524;2023-12-14T06:01:24;0.00;0.00;0.00;0.00;0.00;0.00;0.00;0.00;0.00;0.40
82002;SPS30;71522;50.870;3.524;2023-12-14T06:03:50;0.00;0.00;0.00;0.00;0.00;0.00;0.00;0.00;0.00;0.40
82002;SPS30;71522;50.870;3.524;2023-12-14T06:06:16;0.00;0.00;0.00;0.00;0.00;0.00;0.00;0.00;0.00;0.40
82002;SPS30;71522;50.870;3.524;2023-12-14T06:08:49;0.00;0.00;0.00;0.00;0.00;0.00;0.00;0.00;0.00;0.40
82002;SPS30;71522;50.870;3.524;2023-12-14T06:11:15;0.00;0.00;0.00;0.00;0.00;0.00;0.00;0.00;0.00;0.40
82002;SPS30;71522;50.870;3.524;2023-12-14T06:13:41;0.00;0.00;0.00;0.00;0.00;0.00;0.00;0.00;0.00;0.40
82002;SPS30;71522;50.870;3.524;2023-12-14T06:16:07;0.00;0.00;0.00;0.00;0.00;0.00;0.00;0.00;0.00;0.40
82002;SPS30;71522;50.870;3.524;2023-12-14T06:18:38;0.00;0.00;0.00;0.00;0.00;0.00;0.00;0.00;0.00;0.40
82002;SPS30;71522;50.870;3.524;2023-12-14T06:21:26;0.00;0.00;0.00;0.00;0.00;0.00;0.00;0.00;0.00;0.40
82002;SPS30;71522;50.870;3.524;2023-12-14T06:23:55;0.00;0.00;0.00;0.00;0.00;0.00;0.00;0.00;0.00;0.40
82002;SPS30;71522;50.870;3.524;2023-12-14T06:26:27;0.00;0.00;0.00;0.00;0.00;0.00;0.00;0.00;0.00;0.40
82002;SPS30;71522;50.870;3.524;2023-12-14T06:29:07;0.00;0.00;0.00;0.00;0.00;0.00;0.00;0.00;0.00;0.40
82002;SPS30;71522;50.870;3.524;2023-12-14T06:31:37;0.00;0.00;0.00;0.00;0.00;0.00;0.00;0.00;0.00;0.40
82002;SPS30;71522;50.870;3.524;2023-12-14T06:34:07;0.00;0.00;0.00;0.00;0.00;0.00;0.00;0.00;0.00;0.40
82002;SPS30;71522;50.870;3.524;2023-12-14T06:36:34;0.00;0.00;0.00;0.00;0.00;0.00;0.00;0.00;0.00;0.40
82002;SPS30;71522;50.870;3.524;2023-12-14T06:39:00;0.00;0.00;0.00;0.00;0.00;0.00;0.00;0.00;0.00;0.40
82002;SPS30;71522;50.870;3.524;2023-12-14T06:41:30;0.00;0.00;0.00;0.00;0.00;0.00;0.00;0.00;0.00;0.40
82002;SPS30;71522;50.870;3.524;2023-12-14T06:43:56;0.00;0.00;0.00;0.00;0.00;0.00;0.00;0.00;0.00;0.40
82002;SPS30;71522;50.870;3.524;2023-12-14T06:46:22;0.00;0.00;0.00;0.00;0.00;0.00;0.00;0.00;0.00;0.40
82002;SPS30;71522;50.870;3.524;2023-12-14T06:48:47;0.04;0.04;0.04;0.04;0.31;0.31;0.31;0.31;0.27;0.40
82002;SPS30;71522;50.870;3.524;2023-12-14T06:51:13;8.97;8.86;8.63;7.91;63.19;63.16;63.09;62.70;53.73;0.50
82002;SPS30;71522;50.870;3.524;2023-12-14T06:53:40;7.37;7.25;6.99;6.32;50.51;50.49;50.41;50.01;42.71;0.55
82002;SPS30;71522;50.870;3.524;2023-12-14T06:56:07;6.96;6.94;6.92;6.51;52.00;51.98;51.97;51.83;44.71;0.51
82002;SPS30;71522;50.870;3.524;2023-12-14T06:58:43;6.88;6.87;6.83;6.42;51.29;51.28;51.25;51.11;44.08;0.52
82002;SPS30;71522;50.870;3.524;2023-12-14T07:01:13;6.84;6.84;6.82;6.44;51.43;51.42;51.40;51.28;44.27;0.50
82002;SPS30;71522;50.870;3.524;2023-12-14T07:03:43;6.86;6.85;6.84;6.45;51.47;51.46;51.44;51.32;44.29;0.51
82002;SPS30;71522;50.870;3.524;2023-12-14T07:06:13;6.84;6.84;6.83;6.44;51.46;51.44;51.43;51.31;44.29;0.50
82002;SPS30;71522;50.870;3.524;2023-12-14T07:08:42;7.25;7.22;7.16;6.71;53.55;53.54;53.51;53.33;45.95;0.53
82002;SPS30;71522;50.870;3.524;2023-12-14T07:11:09;7.13;7.12;7.08;6.66;53.18;53.17;53.15;53.00;45.71;0.52
82002;SPS30;71522;50.870;3.524;2023-12-14T07:13:36;6.88;6.85;6.79;6.36;50.76;50.74;50.72;50.54;43.54;0.54
82002;SPS30;71522;50.870;3.524;2023-12-14T07:16:06;6.48;6.46;6.42;6.02;48.10;48.09;48.07;47.93;41.31;0.53
82002;SPS30;71522;50.870;3.524;2023-12-14T07:18:34;6.89;6.87;6.84;6.42;51.26;51.25;51.23;51.08;44.04;0.52
82002;SPS30;71522;50.870;3.524;2023-12-14T07:21:04;6.64;6.63;6.60;6.21;49.59;49.58;49.56;49.43;42.63;0.52
82002;SPS30;71522;50.870;3.524;2023-12-14T07:23:30;6.86;6.84;6.80;6.38;50.94;50.93;50.91;50.75;43.75;0.52
82002;SPS30;71522;50.870;3.524;2023-12-14T07:25:56;6.65;6.63;6.57;6.15;49.15;49.13;49.11;48.95;42.17;0.53
82002;SPS30;71522;50.870;3.524;2023-12-14T07:28:22;6.65;6.64;6.61;6.21;49.61;49.60;49.58;49.44;42.64;0.51
82002;SPS30;71522;50.870;3.524;2023-12-14T07:30:48;6.53;6.52;6.50;6.13;48.96;48.95;48.93;48.81;42.12;0.50
82002;SPS30;71522;50.870;3.524;2023-12-14T07:33:14;6.27;6.25;6.23;5.86;46.83;46.82;46.80;46.68;40.26;0.52
82002;SPS30;71522;50.870;3.524;2023-12-14T07:35:40;6.22;6.21;6.17;5.79;46.26;46.25;46.23;46.09;39.73;0.52
82002;SPS30;71522;50.870;3.524;2023-12-14T07:38:06;6.36;6.35;6.34;5.98;47.73;47.72;47.71;47.59;41.08;0.50
82002;SPS30;71522;50.870;3.524;2023-12-14T07:40:31;6.27;6.26;6.23;5.86;46.77;46.76;46.74;46.61;40.19;0.51
82002;SPS30;71522;50.870;3.524;2023-12-14T07:43:20;5.80;5.79;5.76;5.41;43.18;43.17;43.15;43.03;37.10;0.52
82002;SPS30;71522;50.870;3.524;2023-12-14T07:45:46;6.31;6.30;6.28;5.91;47.23;47.21;47.20;47.08;40.62;0.51
82002;SPS30;71522;50.870;3.524;2023-12-14T07:48:13;6.38;6.37;6.33;5.95;47.51;47.50;47.48;47.34;40.82;0.53
82002;SPS30;71522;50.870;3.524;2023-12-14T07:50:39;6.06;6.05;6.01;5.65;45.12;45.11;45.09;44.96;38.77;0.51
82002;SPS30;71522;50.870;3.524;2023-12-14T07:53:05;6.11;6.09;6.05;5.68;45.38;45.37;45.35;45.21;38.97;0.51
82002;SPS30;71522;50.870;3.524;2023-12-14T07:55:30;6.49;6.47;6.41;6.00;47.92;47.91;47.88;47.72;41.11;0.52
82002;SPS30;71522;50.870;3.524;2023-12-14T07:57:56;6.88;6.85;6.77;6.32;50.45;50.44;50.41;50.21;43.22;0.53
82002;SPS30;71522;50.870;3.524;2023-12-14T08:00:22;6.76;6.73;6.66;6.21;49.62;49.61;49.58;49.40;42.53;0.52
82002;SPS30;71522;50.870;3.524;2023-12-14T08:02:47;7.03;6.99;6.92;6.46;51.62;51.61;51.58;51.39;44.25;0.52
82002;SPS30;71522;50.870;3.524;2023-12-14T08:05:13;7.31;7.28;7.23;6.79;54.20;54.19;54.16;53.99;46.54;0.52
82002;SPS30;71522;50.870;3.524;2023-12-14T08:07:38;7.48;7.46;7.43;6.98;55.75;55.73;55.71;55.55;47.90;0.52
82002;SPS30;71522;50.870;3.524;2023-12-14T08:10:04;7.37;7.34;7.29;6.83;54.55;54.53;54.50;54.33;46.82;0.52
82002;SPS30;71522;50.870;3.524;2023-12-14T08:12:30;7.21;7.18;7.14;6.70;53.54;53.52;53.50;53.34;45.98;0.52
82002;SPS30;71522;50.870;3.524;2023-12-14T08:14:56;7.78;7.76;7.73;7.27;58.05;58.04;58.02;57.86;49.90;0.51
82002;SPS30;71522;50.870;3.524;2023-12-14T08:17:22;7.27;7.24;7.16;6.69;53.43;53.42;53.39;53.19;45.80;0.54
82002;SPS30;71522;50.870;3.524;2023-12-14T08:19:47;7.54;7.49;7.39;6.87;54.87;54.86;54.82;54.59;46.95;0.54
82002;SPS30;71522;50.870;3.524;2023-12-14T08:22:13;7.53;7.48;7.38;6.87;54.85;54.83;54.80;54.57;46.94;0.55
82002;SPS30;71522;50.870;3.524;2023-12-14T08:24:40;7.19;7.15;7.08;6.61;52.76;52.75;52.72;52.52;45.22;0.54
82002;SPS30;71522;50.870;3.524;2023-12-14T08:27:07;7.69;7.67;7.62;7.15;57.07;57.06;57.03;56.86;49.01;0.52
82002;SPS30;71522;50.870;3.524;2023-12-14T08:29:32;7.83;7.81;7.76;7.29;58.24;58.22;58.20;58.03;50.03;0.52
82002;SPS30;71522;50.870;3.524;2023-12-14T08:31:59;8.42;8.39;8.33;7.80;62.32;62.30;62.27;62.07;53.49;0.53
82002;SPS30;71522;50.870;3.524;2023-12-14T08:34:25;8.73;8.66;8.51;7.88;62.91;62.88;62.83;62.53;53.72;0.57
82002;SPS30;71522;50.870;3.524;2023-12-14T08:36:51;9.00;8.96;8.88;8.30;66.31;66.29;66.26;66.03;56.87;0.53
82002;SPS30;71522;50.870;3.524;2023-12-14T08:39:17;8.60;8.56;8.48;7.92;63.24;63.22;63.19;62.96;54.21;0.54
82002;SPS30;71522;50.870;3.524;2023-12-14T08:41:43;8.75;8.70;8.59;8.01;63.94;63.92;63.88;63.62;54.74;0.54
82002;SPS30;71522;50.870;3.524;2023-12-14T08:44:10;8.99;8.94;8.86;8.28;66.14;66.12;66.08;65.85;56.71;0.52
82002;SPS30;71522;50.870;3.524;2023-12-14T08:46:39;9.26;9.23;9.16;8.59;68.56;68.54;68.50;68.28;58.84;0.52
82002;SPS30;71522;50.870;3.524;2023-12-14T08:49:10;8.93;8.90;8.85;8.32;66.40;66.38;66.35;66.16;57.04;0.52
82002;SPS30;71522;50.870;3.524;2023-12-14T08:51:37;9.31;9.27;9.17;8.56;68.34;68.32;68.28;68.02;58.56;0.53
82002;SPS30;71522;50.870;3.524;2023-12-14T08:54:03;9.28;9.23;9.12;8.50;67.89;67.87;67.83;67.56;58.14;0.54
82002;SPS30;71522;50.870;3.524;2023-12-14T08:56:29;10.03;9.97;9.85;9.17;73.26;73.24;73.19;72.90;62.73;0.55
82002;SPS30;71522;50.870;3.524;2023-12-14T08:58:55;9.83;9.79;9.69;9.06;72.35;72.33;72.28;72.03;62.03;0.53
82002;SPS30;71522;50.870;3.524;2023-12-14T09:01:21;9.80;9.74;9.60;8.93;71.33;71.31;71.26;70.96;61.03;0.55
82002;SPS30;71522;50.870;3.524;2023-12-14T09:03:53;9.40;9.35;9.24;8.63;68.88;68.86;68.82;68.56;59.01;0.53
82002;SPS30;71522;50.870;3.524;2023-12-14T09:06:19;9.68;9.65;9.59;9.01;71.95;71.93;71.90;71.69;61.81;0.52
82002;SPS30;71522;50.870;3.524;2023-12-14T09:08:44;9.92;9.88;9.81;9.19;73.40;73.38;73.34;73.10;63.00;0.53
82002;SPS30;71522;50.870;3.524;2023-12-14T09:11:10;9.26;9.24;9.20;8.65;69.08;69.06;69.03;68.84;59.37;0.51
82002;SPS30;71522;50.870;3.524;2023-12-14T09:13:39;9.56;9.52;9.44;8.84;70.61;70.59;70.56;70.32;60.59;0.54
82002;SPS30;71522;50.870;3.524;2023-12-14T09:16:07;9.94;9.90;9.80;9.16;73.15;73.13;73.09;72.83;62.72;0.53